createdAt,value
2022-11-18T00:01:16.588Z,9.00
2022-11-18T00:03:44.194Z,9.00
2022-11-18T00:06:18.589Z,8.90
2022-11-18T00:08:45.555Z,8.90
2022-11-18T00:11:37.423Z,9.00
2022-11-18T00:14:20.745Z,8.80
2022-11-18T00:16:48.837Z,8.80
2022-11-18T00:19:18.681Z,8.70
2022-11-18T00:21:46.060Z,8.60
2022-11-18T00:24:12.809Z,8.60
2022-11-18T00:26:39.554Z,8.50
2022-11-18T00:29:06.308Z,8.50
2022-11-18T00:31:37.972Z,8.40
2022-11-18T00:34:05.292Z,8.40
2022-11-18T00:36:34.420Z,8.30
2022-11-18T00:39:01.167Z,8.30
2022-11-18T00:41:47.867Z,8.30
2022-11-18T00:44:14.588Z,8.50
2022-11-18T00:46:41.592Z,8.50
2022-11-18T00:49:10.771Z,8.50
2022-11-18T00:51:38.076Z,8.50
2022-11-18T00:54:07.133Z,8.50
2022-11-18T00:56:38.572Z,8.50
2022-11-18T00:59:05.381Z,8.50
2022-11-18T01:01:34.378Z,8.50
2022-11-18T01:04:01.285Z,8.50
2022-11-18T01:06:28.449Z,8.50
2022-11-18T01:08:57.310Z,8.50
2022-11-18T01:11:42.691Z,8.50
2022-11-18T01:14:09.437Z,8.50
2022-11-18T01:16:36.107Z,8.60
2022-11-18T01:19:02.825Z,8.50
2022-11-18T01:21:30.043Z,8.50
2022-11-18T01:23:56.725Z,8.60
2022-11-18T01:26:23.451Z,8.60
2022-11-18T01:28:52.577Z,8.60
2022-11-18T01:31:19.730Z,8.60
2022-11-18T01:33:47.072Z,8.70
2022-11-18T01:36:21.264Z,8.70
2022-11-18T01:38:50.803Z,8.70
2022-11-18T01:41:19.227Z,8.70
2022-11-18T01:44:02.307Z,8.70
2022-11-18T01:46:31.114Z,8.70
2022-11-18T01:49:12.650Z,8.70
2022-11-18T01:51:46.899Z,8.70
2022-11-18T01:54:20.188Z,8.60
2022-11-18T01:56:54.156Z,8.60
2022-11-18T01:59:34.616Z,8.60
2022-11-18T02:02:10.787Z,8.60
2022-11-18T02:04:40.399Z,8.60
2022-11-18T02:07:09.946Z,8.60
2022-11-18T02:09:39.513Z,8.60
2022-11-18T02:12:08.119Z,8.60
2022-11-18T02:14:40.452Z,8.60
2022-11-18T02:17:22.464Z,8.60
2022-11-18T02:19:57.149Z,8.50
2022-11-18T02:22:36.047Z,8.60
2022-11-18T02:25:34.365Z,8.50
2022-11-18T02:28:31.397Z,8.50
2022-11-18T02:31:15.980Z,8.60
2022-11-18T02:34:01.046Z,8.70
2022-11-18T02:36:55.617Z,8.70
2022-11-18T02:39:45.673Z,8.60
2022-11-18T02:42:14.914Z,8.50
2022-11-18T02:44:46.129Z,8.50
2022-11-18T02:47:15.397Z,8.50
2022-11-18T02:49:49.422Z,8.50
2022-11-18T02:52:18.005Z,8.50
2022-11-18T02:54:48.780Z,8.40
2022-11-18T02:57:16.494Z,8.50
2022-11-18T02:59:43.225Z,8.50
2022-11-18T03:02:18.960Z,8.50
2022-11-18T03:04:48.313Z,8.50
2022-11-18T03:07:34.621Z,8.50
2022-11-18T03:10:02.382Z,8.50
2022-11-18T03:13:10.346Z,8.50
2022-11-18T03:15:59.429Z,8.50
2022-11-18T03:18:44.331Z,8.60
2022-11-18T03:21:23.652Z,8.60
2022-11-18T03:23:59.570Z,8.60
2022-11-18T03:26:33.192Z,8.60
2022-11-18T03:29:18.037Z,8.60
2022-11-18T03:32:00.982Z,8.70
2022-11-18T03:34:36.003Z,8.70
2022-11-18T03:37:10.252Z,8.60
2022-11-18T03:39:42.837Z,8.50
2022-11-18T03:42:35.728Z,8.50
2022-11-18T03:45:17.377Z,8.50
2022-11-18T03:47:52.708Z,8.50
2022-11-18T03:50:28.374Z,8.50
2022-11-18T03:52:55.928Z,8.60
2022-11-18T03:55:25.419Z,8.70
2022-11-18T03:58:12.584Z,8.70
2022-11-18T04:00:44.578Z,8.80
2022-11-18T04:03:12.196Z,8.80
2022-11-18T04:05:41.591Z,8.70
2022-11-18T04:08:14.926Z,8.70
2022-11-18T04:10:45.629Z,8.60
2022-11-18T04:13:16.493Z,8.60
2022-11-18T04:15:43.316Z,8.60
2022-11-18T04:18:10.998Z,8.60
2022-11-18T04:20:39.900Z,8.60
2022-11-18T04:23:11.379Z,8.60
2022-11-18T04:25:38.757Z,8.60
2022-11-18T04:28:06.175Z,8.60
2022-11-18T04:30:35.620Z,8.60
2022-11-18T04:33:02.721Z,8.60
2022-11-18T04:35:29.480Z,8.50
2022-11-18T04:37:56.154Z,8.60
2022-11-18T04:40:22.913Z,8.60
2022-11-18T04:42:49.583Z,8.60
2022-11-18T04:45:16.302Z,8.50
2022-11-18T04:47:45.496Z,8.60
2022-11-18T04:50:14.586Z,8.60
2022-11-18T04:52:41.418Z,8.70
2022-11-18T04:55:10.460Z,8.70
2022-11-18T04:57:37.198Z,8.70
2022-11-18T05:00:07.104Z,8.70
2022-11-18T05:02:39.046Z,8.70
2022-11-18T05:05:08.367Z,8.60
2022-11-18T05:07:35.080Z,8.60
2022-11-18T05:10:01.779Z,8.50
2022-11-18T05:12:49.687Z,8.50
2022-11-18T05:15:17.992Z,8.50
2022-11-18T05:17:45.058Z,8.50
2022-11-18T05:20:11.997Z,8.50
2022-11-18T05:22:38.803Z,8.50
2022-11-18T05:25:12.462Z,8.50
2022-11-18T05:27:39.131Z,8.50
2022-11-18T05:30:08.599Z,8.50
2022-11-18T05:32:38.151Z,8.40
2022-11-18T05:35:07.428Z,8.40
2022-11-18T05:37:38.775Z,8.40
2022-11-18T05:40:06.269Z,8.40
2022-11-18T05:42:54.038Z,8.40
2022-11-18T05:45:25.677Z,8.40
2022-11-18T05:48:00.664Z,8.40
2022-11-18T05:50:33.055Z,8.40
2022-11-18T05:52:59.928Z,8.50
2022-11-18T05:55:31.859Z,8.30
2022-11-18T05:57:58.551Z,8.30
2022-11-18T06:00:27.647Z,8.30
2022-11-18T06:02:58.222Z,8.20
2022-11-18T06:05:28.806Z,8.20
2022-11-18T06:08:00.791Z,8.10
2022-11-18T06:10:34.891Z,8.10
2022-11-18T06:13:11.327Z,8.10
2022-11-18T06:15:42.091Z,8.20
2022-11-18T06:18:27.161Z,8.20
2022-11-18T06:20:59.704Z,8.20
2022-11-18T06:23:33.925Z,8.20
2022-11-18T06:26:03.247Z,8.20
2022-11-18T06:28:30.793Z,8.20
2022-11-18T06:30:58.963Z,8.20
2022-11-18T06:33:25.746Z,8.20
2022-11-18T06:35:52.417Z,8.10
2022-11-18T06:38:21.496Z,8.10
2022-11-18T06:40:48.143Z,8.10
2022-11-18T06:43:33.488Z,8.10
2022-11-18T06:46:20.007Z,8.00
2022-11-18T06:48:46.856Z,8.00
2022-11-18T06:51:13.607Z,8.10
2022-11-18T06:53:43.326Z,8.10
2022-11-18T06:56:12.633Z,8.10
2022-11-18T06:58:42.193Z,8.10
2022-11-18T07:01:14.359Z,8.20
2022-11-18T07:03:44.795Z,8.20
2022-11-18T07:06:15.183Z,8.20
2022-11-18T07:08:42.610Z,8.20
2022-11-18T07:11:13.208Z,8.20
2022-11-18T07:13:43.857Z,8.20
2022-11-18T07:16:15.328Z,8.20
2022-11-18T07:18:43.781Z,8.30
2022-11-18T07:21:18.590Z,8.30
2022-11-18T07:23:46.007Z,8.30
2022-11-18T07:26:13.578Z,8.30
2022-11-18T07:28:40.584Z,8.40
2022-11-18T07:31:12.364Z,8.30
2022-11-18T07:33:40.639Z,8.40
2022-11-18T07:36:14.531Z,8.40
2022-11-18T07:38:46.416Z,8.30
2022-11-18T07:41:14.792Z,8.40
2022-11-18T07:43:45.278Z,8.40
2022-11-18T07:46:35.946Z,8.50
2022-11-18T07:49:06.191Z,8.50
2022-11-18T07:51:35.957Z,8.60
2022-11-18T07:54:07.770Z,8.60
2022-11-18T07:56:34.521Z,8.60
2022-11-18T07:59:03.579Z,8.60
2022-11-18T08:01:31.141Z,8.50
2022-11-18T08:04:04.661Z,8.60
2022-11-18T08:06:33.123Z,8.70
2022-11-18T08:08:59.960Z,8.70
2022-11-18T08:11:27.075Z,8.70
2022-11-18T08:13:53.750Z,8.70
2022-11-18T08:16:25.806Z,8.80
2022-11-18T08:18:52.918Z,8.80
2022-11-18T08:21:23.118Z,8.80
2022-11-18T08:23:54.697Z,8.80
2022-11-18T08:26:27.040Z,8.90
2022-11-18T08:28:56.978Z,8.80
2022-11-18T08:31:26.586Z,8.80
2022-11-18T08:34:01.730Z,8.80
2022-11-18T08:36:32.516Z,8.80
2022-11-18T08:39:01.475Z,8.90
2022-11-18T08:41:33.748Z,8.80
2022-11-18T08:44:04.409Z,8.80
2022-11-18T08:46:33.747Z,8.70
2022-11-18T08:49:01.003Z,8.60
2022-11-18T08:51:30.033Z,8.70
2022-11-18T08:53:59.179Z,8.60
2022-11-18T08:56:26.171Z,8.60
2022-11-18T08:58:53.601Z,8.70
2022-11-18T09:01:20.619Z,8.70
2022-11-18T09:03:48.474Z,8.60
2022-11-18T09:06:24.753Z,8.50
2022-11-18T09:08:54.522Z,8.50
2022-11-18T09:11:24.772Z,8.50
2022-11-18T09:16:48.456Z,8.60
2022-11-18T09:19:46.200Z,8.60
2022-11-18T09:22:05.789Z,8.60
2022-11-18T09:24:32.957Z,8.60
2022-11-18T09:27:02.556Z,8.60
2022-11-18T09:29:31.944Z,8.60
2022-11-18T09:32:01.905Z,8.60
2022-11-18T09:34:31.919Z,8.70
2022-11-18T09:36:58.687Z,8.70
2022-11-18T09:39:25.680Z,8.70
2022-11-18T09:42:21.370Z,8.70
2022-11-18T09:45:03.926Z,8.70
2022-11-18T09:47:37.602Z,8.70
2022-11-18T09:50:41.788Z,8.80
2022-11-18T09:53:20.783Z,8.80
2022-11-18T09:55:49.049Z,8.90
2022-11-18T09:58:21.712Z,8.80
2022-11-18T10:00:53.004Z,8.70
2022-11-18T10:03:33.582Z,8.70
2022-11-18T10:06:09.291Z,8.70
2022-11-18T10:08:38.805Z,8.60
2022-11-18T10:11:07.702Z,8.70
2022-11-18T10:13:43.577Z,8.70
2022-11-18T10:16:28.408Z,8.80
2022-11-18T10:19:30.081Z,8.80
2022-11-18T10:22:24.763Z,8.90
2022-11-18T10:24:56.074Z,9.00
2022-11-18T10:27:29.537Z,9.00
2022-11-18T10:29:58.096Z,9.10
2022-11-18T10:32:24.914Z,9.10
2022-11-18T10:34:58.840Z,9.10
2022-11-18T10:37:45.813Z,9.10
2022-11-18T10:40:25.540Z,9.20
2022-11-18T10:42:54.679Z,9.10
2022-11-18T10:45:21.442Z,9.20
2022-11-18T10:48:19.214Z,9.20
2022-11-18T10:50:56.001Z,9.20
2022-11-18T10:53:31.326Z,9.30
2022-11-18T10:56:02.392Z,9.30
2022-11-18T10:58:31.025Z,9.20
2022-11-18T11:01:24.686Z,9.20
2022-11-18T11:04:21.267Z,9.20
2022-11-18T11:06:52.913Z,9.30
2022-11-18T11:09:25.567Z,9.50
2022-11-18T11:12:18.349Z,9.70
2022-11-18T11:14:52.178Z,9.80
2022-11-18T11:17:31.272Z,9.90
2022-11-18T11:20:19.247Z,10.00
2022-11-18T11:22:51.395Z,9.90
2022-11-18T11:25:29.839Z,10.00
2022-11-18T11:28:28.120Z,10.20
2022-11-18T11:31:03.408Z,10.30
2022-11-18T11:33:56.205Z,10.40
2022-11-18T11:36:49.757Z,10.40
2022-11-18T11:39:37.632Z,10.30
2022-11-18T11:42:15.540Z,10.30
2022-11-18T11:45:07.076Z,10.30
2022-11-18T11:47:49.443Z,10.10
2022-11-18T11:51:04.286Z,10.10
2022-11-18T11:53:46.335Z,10.20
2022-11-18T11:56:34.390Z,10.20
2022-11-18T11:59:03.331Z,10.10
2022-11-18T12:01:52.908Z,10.10
2022-11-18T12:04:49.099Z,10.00
2022-11-18T12:07:22.051Z,10.00
2022-11-18T12:10:20.811Z,10.00
2022-11-18T12:13:08.830Z,10.00
2022-11-18T12:15:44.817Z,10.10
2022-11-18T12:18:30.327Z,10.10
2022-11-18T12:20:59.527Z,10.10
2022-11-18T12:23:28.478Z,10.10
2022-11-18T12:26:03.067Z,10.00
2022-11-18T12:28:41.739Z,10.00
2022-11-18T12:31:20.744Z,10.00
2022-11-18T12:34:20.832Z,10.10
2022-11-18T12:36:50.199Z,10.30
2022-11-18T12:39:28.287Z,10.30
2022-11-18T12:42:21.842Z,10.40
2022-11-18T12:44:52.929Z,10.40
2022-11-18T12:47:43.817Z,10.40
2022-11-18T12:50:13.865Z,10.40
2022-11-18T12:52:40.563Z,10.30
2022-11-18T12:55:24.824Z,10.40
2022-11-18T12:57:54.075Z,10.50
2022-11-18T13:00:23.487Z,10.50
2022-11-18T13:03:01.247Z,10.60
2022-11-18T13:05:33.748Z,10.80
2022-11-18T13:08:17.053Z,10.80
2022-11-18T13:10:46.208Z,10.80
2022-11-18T13:13:27.307Z,10.80
2022-11-18T13:16:15.916Z,10.80
2022-11-18T13:18:57.948Z,10.70
2022-11-18T13:21:48.047Z,10.60
2022-11-18T13:24:23.495Z,10.50
2022-11-18T13:26:58.900Z,10.50
2022-11-18T13:29:54.094Z,10.60
2022-11-18T13:32:23.031Z,10.60
2022-11-18T13:35:07.383Z,10.50
2022-11-18T13:37:34.353Z,10.40
2022-11-18T13:40:05.444Z,10.40
2022-11-18T13:42:37.993Z,10.40
2022-11-18T13:45:06.136Z,10.40
2022-11-18T13:47:42.947Z,10.40
2022-11-18T13:50:15.528Z,10.30
2022-11-18T13:53:08.125Z,10.30
2022-11-18T13:55:53.850Z,10.30
2022-11-18T13:59:10.474Z,10.30
2022-11-18T14:01:35.043Z,10.50
2022-11-18T14:04:18.700Z,10.70
2022-11-18T14:06:50.634Z,10.90
2022-11-18T14:09:23.331Z,11.00
2022-11-18T14:12:07.500Z,11.00
2022-11-18T14:14:41.957Z,10.90
2022-11-18T14:17:23.825Z,10.80
2022-11-18T14:19:59.387Z,10.70
2022-11-18T14:22:27.826Z,10.60
2022-11-18T14:25:01.943Z,10.50
2022-11-18T14:27:49.257Z,10.50
2022-11-18T14:30:31.665Z,10.50
2022-11-18T14:33:16.730Z,10.50
2022-11-18T14:35:53.534Z,10.50
2022-11-18T14:38:40.735Z,10.40
2022-11-18T14:41:15.731Z,10.30
2022-11-18T14:43:45.946Z,10.20
2022-11-18T14:46:18.290Z,10.10
2022-11-18T14:48:46.239Z,10.00
2022-11-18T14:51:14.969Z,10.00
2022-11-18T14:53:45.939Z,9.80
2022-11-18T14:56:26.885Z,9.60
2022-11-18T14:58:53.690Z,9.50
2022-11-18T15:01:30.549Z,9.50
2022-11-18T15:04:00.066Z,9.40
2022-11-18T15:06:29.010Z,9.40
2022-11-18T15:08:55.962Z,9.30
2022-11-18T15:11:22.924Z,9.30
2022-11-18T15:13:52.475Z,9.30
2022-11-18T15:16:27.048Z,9.30
2022-11-18T15:19:03.199Z,9.30
2022-11-18T15:21:32.740Z,9.30
2022-11-18T15:24:01.563Z,9.30
2022-11-18T15:26:37.207Z,9.20
2022-11-18T15:29:06.782Z,9.20
2022-11-18T15:31:38.139Z,9.20
2022-11-18T15:34:07.436Z,9.20
2022-11-18T15:36:34.239Z,9.20
2022-11-18T15:39:03.505Z,9.20
2022-11-18T15:41:33.931Z,9.20
2022-11-18T15:44:03.123Z,9.20
2022-11-18T15:46:30.424Z,9.20
2022-11-18T15:49:02.752Z,9.20
2022-11-18T15:51:30.577Z,9.20
2022-11-18T15:53:58.340Z,9.20
2022-11-18T15:56:31.605Z,9.20
2022-11-18T15:59:03.198Z,9.20
2022-11-18T16:01:35.577Z,9.10
2022-11-18T16:04:04.055Z,9.10
2022-11-18T16:06:33.723Z,9.10
2022-11-18T16:09:00.993Z,9.10
2022-11-18T16:11:47.265Z,9.10
2022-11-18T16:14:16.690Z,9.10
2022-11-18T16:16:45.879Z,9.10
2022-11-18T16:19:21.761Z,9.00
2022-11-18T16:21:51.606Z,9.00
2022-11-18T16:24:24.250Z,8.90
2022-11-18T16:26:53.413Z,9.00
2022-11-18T16:29:45.369Z,9.00
2022-11-18T16:32:16.819Z,9.00
2022-11-18T16:34:43.586Z,9.00
2022-11-18T16:37:12.614Z,9.00
2022-11-18T16:39:41.546Z,9.00
2022-11-18T16:42:14.441Z,9.00
2022-11-18T16:44:44.818Z,8.90
2022-11-18T16:47:15.455Z,8.90
2022-11-18T16:49:44.817Z,8.80
2022-11-18T16:52:13.766Z,8.80
2022-11-18T16:54:45.343Z,8.80
2022-11-18T16:57:12.930Z,8.70
2022-11-18T16:59:42.158Z,8.70
2022-11-18T17:02:14.980Z,8.70
2022-11-18T17:04:44.298Z,8.70
2022-11-18T17:07:16.099Z,8.70
2022-11-18T17:09:45.144Z,8.70
2022-11-18T17:12:16.576Z,8.60
2022-11-18T17:14:43.377Z,8.60
2022-11-18T17:17:12.549Z,8.60
2022-11-18T17:19:39.250Z,8.50
2022-11-18T17:22:08.148Z,8.50
2022-11-18T17:24:34.899Z,8.50
2022-11-18T17:27:06.636Z,8.50
2022-11-18T17:29:35.973Z,8.60
2022-11-18T17:32:04.962Z,8.50
2022-11-18T17:34:33.924Z,8.50
2022-11-18T17:37:06.820Z,8.40
2022-11-18T17:39:38.642Z,8.40
2022-11-18T17:42:13.820Z,8.50
2022-11-18T17:44:40.606Z,8.50
2022-11-18T17:47:07.361Z,8.50
2022-11-18T17:49:34.179Z,8.50
2022-11-18T17:52:01.013Z,8.50
2022-11-18T17:54:27.823Z,8.50
2022-11-18T17:56:54.610Z,8.50
2022-11-18T17:59:21.443Z,8.50
2022-11-18T18:01:49.847Z,8.40
2022-11-18T18:04:20.688Z,8.30
2022-11-18T18:06:52.785Z,8.30
2022-11-18T18:09:21.770Z,8.30
2022-11-18T18:11:54.721Z,8.30
2022-11-18T18:14:23.589Z,8.30
2022-11-18T18:16:51.078Z,8.30
2022-11-18T18:19:20.332Z,8.30
2022-11-18T18:21:47.324Z,8.40
2022-11-18T18:24:19.727Z,8.40
2022-11-18T18:26:49.383Z,8.40
2022-11-18T18:29:25.254Z,8.40
2022-11-18T18:31:54.512Z,8.40
2022-11-18T18:34:25.936Z,8.40
2022-11-18T18:36:55.279Z,8.40
2022-11-18T18:39:21.992Z,8.40
2022-11-18T18:41:48.755Z,8.40
2022-11-18T18:44:18.805Z,8.40
2022-11-18T18:46:48.086Z,8.40
2022-11-18T18:49:20.662Z,8.40
2022-11-18T18:51:50.202Z,8.30
2022-11-18T18:54:22.157Z,8.40
2022-11-18T18:56:51.241Z,8.40
2022-11-18T18:59:18.105Z,8.40
2022-11-18T19:01:47.148Z,8.40
2022-11-18T19:04:14.033Z,8.40
2022-11-18T19:06:59.834Z,8.40
2022-11-18T19:09:29.089Z,8.50
2022-11-18T19:12:24.480Z,8.60
2022-11-18T19:14:51.368Z,8.60
2022-11-18T19:17:18.233Z,8.50
2022-11-18T19:20:05.694Z,8.50
2022-11-18T19:22:35.707Z,8.40
2022-11-18T19:25:05.192Z,8.40
2022-11-18T19:27:32.070Z,8.40
2022-11-18T19:30:01.005Z,8.50
2022-11-18T19:32:27.872Z,8.70
2022-11-18T19:34:54.869Z,8.70
2022-11-18T19:37:38.203Z,8.70
2022-11-18T19:40:25.197Z,8.70
2022-11-18T19:42:58.110Z,8.60
2022-11-18T19:45:25.580Z,8.70
2022-11-18T19:48:01.745Z,8.80
2022-11-18T19:50:35.110Z,8.80
2022-11-18T19:53:25.595Z,8.80
2022-11-18T19:56:02.864Z,8.70
2022-11-18T19:58:33.277Z,8.70
2022-11-18T20:04:03.078Z,8.70
2022-11-18T20:06:35.217Z,8.80
2022-11-18T20:09:01.938Z,8.70
2022-11-18T20:11:31.149Z,8.80
2022-11-18T20:13:57.990Z,8.80
2022-11-18T20:16:27.309Z,8.80
2022-11-18T20:18:56.123Z,8.70
2022-11-18T20:21:26.802Z,8.60
2022-11-18T20:23:58.887Z,8.70
2022-11-18T20:26:30.230Z,8.70
2022-11-18T20:28:57.855Z,8.60
2022-11-18T20:31:28.186Z,8.50
2022-11-18T20:33:59.077Z,8.50
2022-11-18T20:36:39.013Z,8.50
2022-11-18T20:39:08.372Z,8.40
2022-11-18T20:41:37.600Z,8.40
2022-11-18T20:44:08.265Z,8.40
2022-11-18T20:46:39.554Z,8.30
2022-11-18T20:49:08.556Z,8.30
2022-11-18T20:51:35.589Z,8.40
2022-11-18T20:54:07.653Z,8.40
2022-11-18T20:56:34.469Z,8.40
2022-11-18T20:59:01.205Z,8.50
2022-11-18T21:01:29.854Z,8.50
2022-11-18T21:04:01.789Z,8.50
2022-11-18T21:06:34.388Z,8.50
2022-11-18T21:09:03.919Z,8.50
2022-11-18T21:11:33.160Z,8.40
2022-11-18T21:14:23.876Z,8.30
2022-11-18T21:16:57.499Z,8.30
2022-11-18T21:19:27.559Z,8.30
2022-11-18T21:21:54.967Z,8.30
2022-11-18T21:24:32.825Z,8.30
2022-11-18T21:27:03.807Z,8.30
2022-11-18T21:29:34.932Z,8.30
2022-11-18T21:32:01.890Z,8.30
2022-11-18T21:34:32.008Z,8.30
2022-11-18T21:37:01.157Z,8.30
2022-11-18T21:39:27.940Z,8.30
2022-11-18T21:41:56.647Z,8.30
2022-11-18T21:44:25.554Z,8.30
2022-11-18T21:46:54.509Z,8.30
2022-11-18T21:49:23.786Z,8.20
2022-11-18T21:51:50.704Z,8.20
2022-11-18T21:54:18.396Z,8.30
2022-11-18T21:56:47.782Z,8.30
2022-11-18T21:59:17.201Z,8.30
2022-11-18T22:01:46.783Z,8.40
2022-11-18T22:04:35.962Z,8.40
2022-11-18T22:07:05.318Z,8.40
2022-11-18T22:09:37.249Z,8.40
2022-11-18T22:12:08.018Z,8.30
2022-11-18T22:14:35.010Z,8.30
2022-11-18T22:17:04.336Z,8.40
2022-11-18T22:19:33.392Z,8.40
2022-11-18T22:22:02.349Z,8.40
2022-11-18T22:24:31.446Z,8.40
2022-11-18T22:27:00.659Z,8.30
2022-11-18T22:29:29.741Z,8.30
2022-11-18T22:31:57.140Z,8.30
2022-11-18T22:34:26.438Z,8.30
2022-11-18T22:36:53.151Z,8.30
2022-11-18T22:39:20.064Z,8.20
2022-11-18T22:42:05.688Z,8.20
2022-11-18T22:44:37.663Z,8.20
2022-11-18T22:47:09.399Z,8.20
2022-11-18T22:49:38.337Z,8.30
2022-11-18T22:52:07.715Z,8.30
2022-11-18T22:54:40.026Z,8.30
2022-11-18T22:57:09.863Z,8.30
2022-11-18T22:59:41.282Z,8.30
2022-11-18T23:02:10.295Z,8.30
2022-11-18T23:04:37.042Z,8.30
2022-11-18T23:07:04.119Z,8.40
2022-11-18T23:09:30.991Z,8.50
2022-11-18T23:12:16.434Z,8.70
2022-11-18T23:14:45.765Z,8.70
2022-11-18T23:17:15.915Z,8.60
2022-11-18T23:19:46.949Z,8.50
2022-11-18T23:22:15.922Z,8.50
2022-11-18T23:24:44.863Z,8.50
2022-11-18T23:27:14.034Z,8.40
2022-11-18T23:29:43.167Z,8.50
2022-11-18T23:32:09.827Z,8.40
2022-11-18T23:34:36.616Z,8.30
2022-11-18T23:37:05.806Z,8.30
2022-11-18T23:39:32.518Z,8.20
2022-11-18T23:42:01.446Z,8.10
2022-11-18T23:45:00.972Z,8.10
2022-11-18T23:47:30.643Z,8.10
2022-11-18T23:49:57.361Z,8.10
2022-11-18T23:52:24.276Z,8.20
2022-11-18T23:54:54.512Z,8.20
2022-11-18T23:57:21.306Z,8.10
2022-11-18T23:59:50.475Z,8.00
